Terminal Aerodrome Forecast
Issued by NWS Charleston, WV

Current Version | Previous Version | Graphics & Text | Print | Product List | Glossary On
Versions: 1 2 3 4 5 6 7 8 9 10 11 12 13 14 15 16 17 18 19 20 21 22 23 24 25 26 27 28 29
000
FTUS41 KRLX 220228 AAA
TAFEKN
TAF AMD
KEKN 220228Z 2202/2224 32004KT 6SM BR BKN025
     FM220500 31004KT 5SM BR SCT025
     FM220600 29003KT 2SM BR FEW015
     FM220800 00000KT 1SM BR SCT001 SCT020
     FM221200 28008KT 3SM BR FEW025
     FM221300 28012G20KT P6SM SCT035
     FM221800 27012G20KT P6SM BKN040=

USA.gov is the U.S. government's official web portal to all federal, state and local government web resources and services.